KBOI METAR and TAF | Updated Today

KBOI METAR

Boise Air Terminal/Gowen Field

Observation time: 29 min. ago

KBOI 301653Z 13004KT 10SM CLR 03/01 A3037 RMK AO2 SLP299 T00330006

Need help? Read our tutorial on how to read METARs or read the parsed version below.

Boise Air Terminal/Gowen Field (KBOI) METAR

  • Weather conditions on Tue, 30 Nov 2021 16:53:00 +0000 (29 min. ago):
  • Present conditions: Dry
  • Clouds: Clear skies
  • Visibility: 16093 meters
  • Wind: 130 degrees at 4 knots
  • Temperature: 3 celsius
  • Dew point: 1 celsius
  • Pressure: 30.37 inHg
  • Remarks: AO2 SLP299 T00330006


Useful to know...

KBOI TAF

Boise Air Terminal/Gowen Field

KBOI 301120Z 3012/0112 14006KT P6SM SKC FM301800 31007KT P6SM FEW150 FM010300 VRB03KT P6SM BKN120
Observation time: 6:02 hr. ago
Need help? Read our tutorial on how to read TAFs or read the parsed version below.

Parsed version of TAF for Boise Air Terminal/Gowen Field (KBOI)

  • From 30 November at 12:00 UTC, to day 01 of the month at 12:00 UTC
  • Clouds: No significant changes expected
  • Wind: 140 degrees at 6
  • From day 30 of the month at 18:00 UTC
  • Clouds: A few at 4572 meters
  • Wind: 310 degrees at 7
  • From day 1 of the month at 03:00 UTC
  • Clouds: Broken sky at 3658 meters
  • Wind: Variable at 3